createdAt,value
2019-04-21T00:00:15.477Z,15
2019-04-21T00:01:12.607Z,15.2
2019-04-21T00:02:18.493Z,15.2
2019-04-21T00:03:17.991Z,15.1
2019-04-21T00:04:24.427Z,15
2019-04-21T00:05:29.664Z,15.1
2019-04-21T00:06:29.674Z,15.2
2019-04-21T00:07:30.930Z,15.1
2019-04-21T00:08:41.248Z,15
2019-04-21T00:09:32.437Z,15
2019-04-21T00:10:32.869Z,14.9
2019-04-21T00:11:34.114Z,14.9
2019-04-21T00:12:28.147Z,14.9
2019-04-21T00:14:21.652Z,14.9
2019-04-21T00:15:20.087Z,14.9
2019-04-21T00:16:16.039Z,14.8
2019-04-21T00:17:16.114Z,15
2019-04-21T00:18:13.858Z,15
2019-04-21T00:19:17.706Z,14.9
2019-04-21T00:20:20.235Z,15
2019-04-21T00:21:23.131Z,15.1
2019-04-21T00:22:22.790Z,15
2019-04-21T00:23:27.359Z,15
2019-04-21T00:24:24.742Z,15
2019-04-21T00:25:27.317Z,15
2019-04-21T00:26:27.716Z,14.9
2019-04-21T00:27:27.887Z,15.1
2019-04-21T00:28:35.730Z,15
2019-04-21T00:29:30.066Z,15
2019-04-21T00:30:26.700Z,15
2019-04-21T00:31:28.167Z,15
2019-04-21T00:32:25.196Z,14.9
2019-04-21T00:33:19.520Z,14.9
2019-04-21T00:34:13.333Z,14.9
2019-04-21T00:35:17.539Z,14.9
2019-04-21T00:36:20.514Z,14.8
2019-04-21T00:37:23.019Z,14.9
2019-04-21T00:38:31.799Z,15
2019-04-21T00:39:43.189Z,14.9
2019-04-21T00:40:34.314Z,15
2019-04-21T00:41:36.312Z,15
2019-04-21T00:42:34.078Z,15.1
2019-04-21T00:43:27.827Z,14.9
2019-04-21T00:44:24.412Z,14.7
2019-04-21T00:45:27.335Z,14.7
2019-04-21T00:46:30.627Z,14.6
2019-04-21T00:47:33.925Z,14.6
2019-04-21T00:48:34.191Z,14.7
2019-04-21T00:49:26.754Z,14.9
2019-04-21T00:50:40.043Z,14.7
2019-04-21T00:52:56.135Z,14.7
2019-04-21T00:54:41.398Z,14.5
2019-04-21T00:55:38.355Z,14.6
2019-04-21T00:57:38.603Z,14.7
2019-04-21T00:58:52.988Z,14.8
2019-04-21T00:59:39.878Z,14.7
2019-04-21T01:00:32.190Z,14.7
2019-04-21T01:01:24.690Z,14.7
2019-04-21T01:02:37.998Z,14.7
2019-04-21T01:03:37.088Z,14.8
2019-04-21T01:04:36.693Z,14.5
2019-04-21T01:05:40.931Z,14.5
2019-04-21T01:06:35.005Z,14.6
2019-04-21T01:07:35.673Z,14.7
2019-04-21T01:08:35.218Z,14.7
2019-04-21T01:09:31.550Z,14.8
2019-04-21T01:10:28.339Z,14.8
2019-04-21T01:11:31.067Z,14.6
2019-04-21T01:12:37.139Z,14.6
2019-04-21T01:13:40.856Z,14.5
2019-04-21T01:14:40.560Z,14.5
2019-04-21T01:15:42.186Z,14.5
2019-04-21T01:16:38.813Z,14.5
2019-04-21T01:17:35.072Z,14.6
2019-04-21T01:18:36.715Z,14.6
2019-04-21T01:19:32.778Z,14.6
2019-04-21T01:20:17.457Z,14.6
2019-04-21T01:21:15.811Z,14.6
2019-04-21T01:22:15.907Z,14.6
2019-04-21T01:23:16.715Z,14.6
2019-04-21T01:24:21.514Z,14.6
2019-04-21T01:25:25.492Z,14.5
2019-04-21T01:26:29.531Z,14.4
2019-04-21T01:27:29.315Z,14.5
2019-04-21T01:28:33.867Z,14.4
2019-04-21T01:29:41.275Z,14.6
2019-04-21T01:30:34.033Z,14.5
2019-04-21T01:31:32.556Z,14.5
2019-04-21T01:32:34.168Z,14.5
2019-04-21T01:33:37.823Z,14.5
2019-04-21T01:34:38.783Z,14.6
2019-04-21T01:35:39.233Z,14.6
2019-04-21T01:36:34.493Z,14.5
2019-04-21T01:37:43.642Z,14.4
2019-04-21T01:38:39.607Z,14.4
2019-04-21T01:39:40.569Z,14.3
2019-04-21T01:41:38.745Z,14.5
2019-04-21T01:42:31.226Z,14.4
2019-04-21T01:43:33.160Z,14.4
2019-04-21T01:44:41.525Z,14.5
2019-04-21T01:45:36.794Z,14.3
2019-04-21T01:46:33.410Z,14.3
2019-04-21T01:47:30.867Z,14.4
2019-04-21T01:48:34.031Z,14.3
2019-04-21T01:49:29.386Z,14.3
2019-04-21T01:50:34.260Z,14.4
2019-04-21T01:51:32.600Z,14.5
2019-04-21T01:52:43.718Z,14.6
2019-04-21T01:53:42.075Z,14.6
2019-04-21T01:54:40.212Z,14.4
2019-04-21T01:55:42.958Z,14.4
2019-04-21T01:56:38.554Z,14.4
2019-04-21T01:57:37.192Z,14.5
2019-04-21T01:58:28.686Z,14.6
2019-04-21T01:59:34.727Z,14.3
2019-04-21T02:00:37.732Z,14.2
2019-04-21T02:01:38.414Z,14.3
2019-04-21T02:02:43.117Z,14.5
2019-04-21T02:04:41.036Z,14.3
2019-04-21T02:05:43.772Z,14.4
2019-04-21T02:06:43.946Z,14.5
2019-04-21T02:07:38.787Z,14.6
2019-04-21T02:08:35.838Z,14.5
2019-04-21T02:09:37.081Z,14.4
2019-04-21T02:10:45.941Z,14.4
2019-04-21T02:11:35.241Z,14.3
2019-04-21T02:12:44.204Z,14.3
2019-04-21T02:13:46.512Z,14.3
2019-04-21T02:14:45.279Z,14.4
2019-04-21T02:15:41.819Z,14.3
2019-04-21T02:16:40.282Z,14.3
2019-04-21T02:17:40.490Z,14.4
2019-04-21T02:18:38.810Z,14.3
2019-04-21T02:19:35.738Z,14.4
2019-04-21T02:20:31.596Z,14.4
2019-04-21T02:21:33.888Z,14.5
2019-04-21T02:22:57.215Z,14.4
2019-04-21T02:23:45.491Z,14.4
2019-04-21T02:24:49.187Z,14.3
2019-04-21T02:25:38.233Z,14.1
2019-04-21T02:27:35.883Z,13.9
2019-04-21T02:29:40.487Z,14.2
2019-04-21T02:30:54.114Z,14.2
2019-04-21T02:31:55.216Z,14
2019-04-21T02:33:54.072Z,14.1
2019-04-21T02:38:55.533Z,14.1
2019-04-21T02:39:56.414Z,14.1
2019-04-21T02:42:00.552Z,14.2
2019-04-21T02:42:55.445Z,14.2
2019-04-21T02:43:51.880Z,14.3
2019-04-21T02:44:51.151Z,14.3
2019-04-21T02:45:55.706Z,14.2
2019-04-21T02:46:52.788Z,14.2
2019-04-21T02:47:53.166Z,14.2
2019-04-21T02:48:55.092Z,14.2
2019-04-21T02:49:59.348Z,14.2
2019-04-21T02:50:44.628Z,14.2
2019-04-21T02:51:52.301Z,14.3
2019-04-21T02:52:52.115Z,14.2
2019-04-21T02:54:11.630Z,14.2
2019-04-21T02:55:02.185Z,14.1
2019-04-21T02:55:50.633Z,14.1
2019-04-21T02:57:00.685Z,14
2019-04-21T02:57:57.306Z,13.9
2019-04-21T02:58:59.146Z,13.6
2019-04-21T02:59:49.220Z,13.5
2019-04-21T03:00:42.425Z,13.1
2019-04-21T03:01:55.673Z,13.2
2019-04-21T03:02:46.619Z,13.2
2019-04-21T03:03:52.324Z,13.3
2019-04-21T03:04:51.634Z,13.5
2019-04-21T03:05:50.304Z,13.5
2019-04-21T03:07:54.690Z,13.5
2019-04-21T03:08:58.509Z,13.5
2019-04-21T03:10:52.769Z,13.4
2019-04-21T03:11:46.641Z,13.4
2019-04-21T03:12:50.615Z,13.3
2019-04-21T03:13:56.522Z,13.3
2019-04-21T03:16:46.770Z,13.3
2019-04-21T03:17:56.681Z,13.3
2019-04-21T03:19:04.465Z,13.4
2019-04-21T03:20:58.713Z,13.2
2019-04-21T03:21:56.853Z,13.1
2019-04-21T03:22:52.902Z,13.2
2019-04-21T03:23:53.385Z,13.1
2019-04-21T03:25:02.227Z,13.1
2019-04-21T03:25:49.291Z,13.2
2019-04-21T03:27:09.415Z,13.1
2019-04-21T03:28:04.609Z,13
2019-04-21T03:29:11.587Z,13
2019-04-21T03:29:58.897Z,13
2019-04-21T03:31:17.866Z,13
2019-04-21T03:32:13.525Z,13.1
2019-04-21T03:33:23.018Z,13.2
2019-04-21T03:35:32.402Z,13.4
2019-04-21T03:37:52.148Z,13.3
2019-04-21T03:38:52.907Z,13.2
2019-04-21T03:40:06.574Z,13.1
2019-04-21T03:40:46.800Z,13.1
2019-04-21T03:41:56.350Z,13.2
2019-04-21T03:44:05.868Z,13.3
2019-04-21T03:44:51.856Z,13.4
2019-04-21T03:46:05.644Z,13.5
2019-04-21T03:46:55.354Z,13.5
2019-04-21T03:47:52.132Z,13.3
2019-04-21T03:53:02.229Z,13.3
2019-04-21T03:53:53.259Z,13.3
2019-04-21T03:54:53.019Z,13.3
2019-04-21T03:59:10.932Z,13.2
2019-04-21T03:59:54.754Z,13.1
2019-04-21T04:00:59.406Z,13
2019-04-21T04:01:57.353Z,13
2019-04-21T04:03:07.169Z,13
2019-04-21T04:04:03.223Z,12.9
2019-04-21T04:06:03.015Z,13
2019-04-21T04:07:03.813Z,13.1
2019-04-21T04:07:57.119Z,13.1
2019-04-21T04:09:09.007Z,13.1
2019-04-21T04:09:51.653Z,13.1
2019-04-21T04:11:02.457Z,13.1
2019-04-21T04:12:56.841Z,13
2019-04-21T04:14:49.901Z,13.1
2019-04-21T04:15:55.852Z,13
2019-04-21T04:17:04.402Z,13
2019-04-21T04:17:53.751Z,13
2019-04-21T04:18:57.201Z,13
2019-04-21T04:20:50.943Z,13
2019-04-21T04:23:00.731Z,12.9
2019-04-21T04:25:09.139Z,12.7
2019-04-21T04:26:54.969Z,12.5
2019-04-21T04:28:07.966Z,12.5
2019-04-21T04:29:03.232Z,12.7
2019-04-21T04:29:50.015Z,12.7
2019-04-21T04:31:04.775Z,12.5
2019-04-21T04:31:47.267Z,12.5
2019-04-21T04:32:56.127Z,12.4
2019-04-21T04:34:12.409Z,12.5
2019-04-21T04:35:03.059Z,12.5
2019-04-21T04:36:00.834Z,12.5
2019-04-21T04:37:55.362Z,12.4
2019-04-21T04:38:58.651Z,12.2
2019-04-21T04:39:59.285Z,12.2
2019-04-21T04:40:55.202Z,12.3
2019-04-21T04:42:02.577Z,12.4
2019-04-21T04:42:55.325Z,12.5
2019-04-21T04:44:02.820Z,12.5
2019-04-21T04:45:03.889Z,12.5
2019-04-21T04:45:53.468Z,12.5
2019-04-21T04:47:08.758Z,12.4
2019-04-21T04:47:49.576Z,12.6
2019-04-21T04:48:51.027Z,12.4
2019-04-21T04:49:51.309Z,12.3
2019-04-21T04:51:11.361Z,12.2
2019-04-21T04:53:11.310Z,12.3
2019-04-21T04:54:01.461Z,12.3
2019-04-21T04:55:45.377Z,11.9
2019-04-21T04:57:07.296Z,11.9
2019-04-21T04:57:58.885Z,12
2019-04-21T05:00:53.531Z,12.2
2019-04-21T05:02:55.772Z,12
2019-04-21T05:05:04.666Z,12.2
2019-04-21T05:06:09.800Z,12.3
2019-04-21T05:06:56.060Z,12.3
2019-04-21T05:08:05.321Z,12.2
2019-04-21T05:09:07.383Z,12.2
2019-04-21T05:09:58.788Z,12.2
2019-04-21T05:11:55.201Z,11.9
2019-04-21T05:12:56.453Z,11.9
2019-04-21T05:14:59.060Z,11.9
2019-04-21T05:16:00.063Z,11.8
2019-04-21T05:16:51.596Z,11.7
2019-04-21T05:17:57.163Z,11.8
2019-04-21T05:21:02.369Z,11.6
2019-04-21T05:21:51.901Z,11.5
2019-04-21T05:22:52.790Z,11.4
2019-04-21T05:23:46.675Z,11.4
2019-04-21T05:24:43.834Z,11.3
2019-04-21T05:25:45.520Z,11.3
2019-04-21T05:27:46.513Z,11.4
2019-04-21T05:28:40.527Z,11.4
2019-04-21T05:29:53.345Z,11.3
2019-04-21T05:30:54.966Z,11.6
2019-04-21T05:32:52.206Z,11.8
2019-04-21T05:33:52.854Z,11.7
2019-04-21T05:34:50.163Z,11.7
2019-04-21T05:35:48.766Z,11.6
2019-04-21T05:37:47.127Z,11.4
2019-04-21T05:38:47.447Z,11.4
2019-04-21T05:39:47.864Z,11.5
2019-04-21T05:41:41.184Z,11.5
2019-04-21T05:42:49.421Z,11.6
2019-04-21T05:43:51.236Z,12
2019-04-21T05:44:57.962Z,12.1
2019-04-21T05:45:51.445Z,12.1
2019-04-21T05:46:56.273Z,12
2019-04-21T05:48:51.687Z,12
2019-04-21T05:49:49.603Z,12.3
2019-04-21T05:50:48.960Z,12.4
2019-04-21T05:51:43.864Z,12.3
2019-04-21T05:52:44.538Z,12.4
2019-04-21T05:53:46.568Z,12.6
2019-04-21T05:54:54.420Z,12.7
2019-04-21T05:55:56.046Z,12.5
2019-04-21T05:56:48.344Z,12.4
2019-04-21T05:57:45.592Z,12.4
2019-04-21T05:58:43.377Z,12.5
2019-04-21T05:59:48.756Z,12.7
2019-04-21T06:01:14.375Z,12.8
2019-04-21T06:01:55.236Z,12.8
2019-04-21T06:03:56.860Z,12.7
2019-04-21T06:05:05.207Z,12.7
2019-04-21T06:06:00.084Z,12.8
2019-04-21T06:06:56.569Z,13
2019-04-21T06:07:45.945Z,13.1
2019-04-21T06:08:47.659Z,13.1
2019-04-21T06:09:55.271Z,13
2019-04-21T06:10:52.131Z,13
2019-04-21T06:11:50.625Z,13.2
2019-04-21T06:12:59.038Z,13
2019-04-21T06:13:54.801Z,13
2019-04-21T06:14:53.853Z,13
2019-04-21T06:15:55.938Z,13
2019-04-21T06:16:55.399Z,13
2019-04-21T06:17:56.170Z,13.1
2019-04-21T06:18:46.966Z,13.2
2019-04-21T06:19:49.168Z,13.2
2019-04-21T06:21:44.403Z,13.2
2019-04-21T06:22:56.207Z,13.3
2019-04-21T06:24:02.100Z,13.3
2019-04-21T06:25:20.564Z,13.4
2019-04-21T06:26:01.743Z,13.4
2019-04-21T06:27:57.055Z,13.6
2019-04-21T06:28:49.965Z,13.5
2019-04-21T06:30:03.091Z,13.7
2019-04-21T06:31:05.297Z,13.9
2019-04-21T06:32:51.999Z,13.7
2019-04-21T06:33:44.265Z,13.6
2019-04-21T06:35:05.978Z,13.7
2019-04-21T06:36:56.495Z,13.7
2019-04-21T06:37:56.295Z,13.7
2019-04-21T06:39:04.472Z,13.8
2019-04-21T06:40:07.421Z,13.8
2019-04-21T06:40:55.620Z,13.8
2019-04-21T06:41:52.894Z,13.9
2019-04-21T06:43:04.217Z,14.1
2019-04-21T06:43:56.142Z,14.1
2019-04-21T06:44:57.048Z,14.2
2019-04-21T06:45:58.683Z,14.5
2019-04-21T06:46:57.361Z,14.6
2019-04-21T06:47:57.258Z,14.6
2019-04-21T06:49:02.196Z,14.6
2019-04-21T06:49:53.508Z,14.7
2019-04-21T06:50:58.967Z,14.9
2019-04-21T06:51:54.371Z,14.9
2019-04-21T06:53:10.544Z,15
2019-04-21T06:55:02.315Z,14.9
2019-04-21T06:55:59.891Z,14.9
2019-04-21T06:57:08.509Z,15
2019-04-21T06:57:51.325Z,15.1
2019-04-21T06:58:55.346Z,15.1
2019-04-21T06:59:55.131Z,15.1
2019-04-21T07:00:53.400Z,15.2
2019-04-21T07:01:56.261Z,15.5
2019-04-21T07:03:07.952Z,15.5
2019-04-21T07:04:05.287Z,15.6
2019-04-21T07:08:14.558Z,15.7
2019-04-21T07:09:09.805Z,15.8
2019-04-21T07:10:01.182Z,15.9
2019-04-21T07:10:55.780Z,16
2019-04-21T07:11:47.349Z,16.1
2019-04-21T07:12:50.756Z,16.1
2019-04-21T07:14:58.757Z,15.9
2019-04-21T07:15:55.267Z,16
2019-04-21T07:17:57.625Z,16.3
2019-04-21T07:18:59.683Z,16.3
2019-04-21T07:19:59.921Z,16.3
2019-04-21T07:21:55.332Z,16.5
2019-04-21T07:22:54.003Z,16.6
2019-04-21T07:23:58.763Z,16.4
2019-04-21T07:26:55.190Z,16.5
2019-04-21T07:27:57.801Z,16.6
2019-04-21T07:29:01.536Z,17
2019-04-21T07:29:58.031Z,17.1
2019-04-21T07:33:00.758Z,17.2
2019-04-21T07:34:07.273Z,17.5
2019-04-21T07:35:03.412Z,17.5
2019-04-21T07:35:55.288Z,17.5
2019-04-21T07:37:57.541Z,17.6
2019-04-21T07:38:55.260Z,17.5
2019-04-21T07:39:54.395Z,17.6
2019-04-21T07:41:52.127Z,17.5
2019-04-21T07:43:50.853Z,17.7
2019-04-21T07:44:52.079Z,17.7
2019-04-21T07:45:52.332Z,17.7
2019-04-21T07:46:48.909Z,17.6
2019-04-21T07:47:54.763Z,17.7
2019-04-21T07:48:55.303Z,17.5
2019-04-21T07:50:00.104Z,17.4
2019-04-21T07:50:57.289Z,17.4
2019-04-21T07:52:59.838Z,17.8
2019-04-21T07:54:01.298Z,18.1
2019-04-21T07:55:05.302Z,18.3
2019-04-21T07:55:39.267Z,18.3
2019-04-21T07:56:41.683Z,18.3
2019-04-21T07:57:55.599Z,18.4
2019-04-21T07:59:01.492Z,18.5
2019-04-21T08:00:05.721Z,18.4
2019-04-21T08:00:56.094Z,18.4
2019-04-21T08:02:00.645Z,18.6
2019-04-21T08:03:00.017Z,18.8
2019-04-21T08:03:59.079Z,18.6
2019-04-21T08:04:59.265Z,18.4
2019-04-21T08:06:50.604Z,18.5
2019-04-21T08:08:09.261Z,18.5
2019-04-21T08:08:59.044Z,18.5
2019-04-21T08:09:56.844Z,18.4
2019-04-21T08:10:56.574Z,18.5
2019-04-21T08:11:51.413Z,18.7
2019-04-21T08:12:54.017Z,18.9
2019-04-21T08:13:56.022Z,19.2
2019-04-21T08:14:57.255Z,19.5
2019-04-21T08:15:55.673Z,19.4
2019-04-21T08:17:59.461Z,19.3
2019-04-21T08:18:57.605Z,19.3
2019-04-21T08:20:59.530Z,19.5
2019-04-21T08:21:57.223Z,19.6
2019-04-21T08:23:53.998Z,19.5
2019-04-21T08:25:02.678Z,19.5
2019-04-21T08:27:04.783Z,19.5
2019-04-21T08:27:53.722Z,19.5
2019-04-21T08:29:00.821Z,19.5
2019-04-21T08:29:57.853Z,19.6
2019-04-21T08:31:01.087Z,19.6
2019-04-21T08:32:07.664Z,19.8
2019-04-21T08:33:06.809Z,20
2019-04-21T08:34:00.465Z,20.2
2019-04-21T08:35:15.872Z,20.3
2019-04-21T08:36:56.536Z,20.3
2019-04-21T08:38:00.725Z,20.4
2019-04-21T08:38:58.105Z,20.5
2019-04-21T08:41:01.342Z,20.6
2019-04-21T08:41:55.762Z,20.4
2019-04-21T08:42:59.474Z,20.2
2019-04-21T08:43:55.828Z,20.2
2019-04-21T08:44:59.926Z,20.3
2019-04-21T08:45:58.583Z,20.4
2019-04-21T08:47:05.860Z,20.3
2019-04-21T08:48:16.632Z,20.4
2019-04-21T08:49:00.418Z,20.4
2019-04-21T08:50:00.162Z,20.5
2019-04-21T08:51:13.846Z,20.6
2019-04-21T08:52:00.473Z,20.6
2019-04-21T08:52:59.618Z,20.5
2019-04-21T08:54:01.021Z,20.7
2019-04-21T08:56:03.062Z,20.9
2019-04-21T08:57:01.015Z,20.9
2019-04-21T08:58:07.882Z,20.9
2019-04-21T08:59:02.017Z,20.9
2019-04-21T09:00:04.701Z,20.7
2019-04-21T09:02:22.799Z,27.7
2019-04-21T09:03:13.839Z,20.8
2019-04-21T09:04:18.404Z,20.8
2019-04-21T09:05:17.374Z,20.8
2019-04-21T09:06:22.020Z,20.8
2019-04-21T09:08:19.345Z,20.8
2019-04-21T09:09:16.345Z,20.7
2019-04-21T09:10:16.694Z,20.8
2019-04-21T09:11:16.041Z,20.8
2019-04-21T09:12:14.538Z,20.9
2019-04-21T09:13:16.844Z,21
2019-04-21T09:14:17.651Z,21.1
2019-04-21T09:15:18.762Z,21.3
2019-04-21T09:16:13.576Z,21.2
2019-04-21T09:17:14.694Z,21.4
2019-04-21T09:18:13.225Z,21.7
2019-04-21T09:19:14.020Z,21.6
2019-04-21T09:20:24.710Z,21.7
2019-04-21T09:21:19.235Z,21.5
2019-04-21T09:22:16.434Z,21.4
2019-04-21T09:23:19.059Z,21.7
2019-04-21T09:24:21.685Z,21.5
2019-04-21T09:25:26.367Z,21.4
2019-04-21T09:26:18.132Z,21.1
2019-04-21T09:27:14.004Z,21.2
2019-04-21T09:28:16.584Z,21.2
2019-04-21T09:29:10.672Z,21.2
2019-04-21T09:30:03.358Z,21.5
2019-04-21T09:31:03.170Z,21.4
2019-04-21T09:32:01.818Z,28.6
2019-04-21T09:33:02.333Z,21.7
2019-04-21T09:34:03.072Z,28.6
2019-04-21T09:35:03.280Z,28.8
2019-04-21T09:36:04.354Z,21.8
2019-04-21T09:37:15.085Z,22
2019-04-21T09:38:11.160Z,22
2019-04-21T09:39:09.076Z,22
2019-04-21T09:40:02.578Z,21.7
2019-04-21T09:41:00.960Z,22
2019-04-21T09:42:03.207Z,22.3
2019-04-21T09:43:06.301Z,22.3
2019-04-21T09:44:01.702Z,21.9
2019-04-21T09:45:04.837Z,21.8
2019-04-21T09:46:01.902Z,22.1
2019-04-21T09:47:03.093Z,21.8
2019-04-21T09:48:07.859Z,21.6
2019-04-21T09:49:05.501Z,21.7
2019-04-21T09:50:03.455Z,21.9
2019-04-21T09:51:01.919Z,21.9
2019-04-21T09:52:02.228Z,21.7
2019-04-21T09:53:11.415Z,21.7
2019-04-21T09:54:08.679Z,21.9
2019-04-21T09:55:09.918Z,21.9
2019-04-21T09:56:05.370Z,22.1
2019-04-21T09:57:07.441Z,22.3
2019-04-21T09:58:09.799Z,22.3
2019-04-21T09:59:08.806Z,22.3
2019-04-21T10:00:08.513Z,22.5
2019-04-21T10:01:11.472Z,22.7
2019-04-21T10:02:08.337Z,23.1
2019-04-21T10:03:08.089Z,22.7
2019-04-21T10:04:05.216Z,22.4
2019-04-21T10:05:02.967Z,22.4
2019-04-21T10:06:02.577Z,22.4
2019-04-21T10:07:03.000Z,22.4
2019-04-21T10:08:03.606Z,22.6
2019-04-21T10:09:05.882Z,22.8
2019-04-21T10:10:03.762Z,22.6
2019-04-21T10:11:03.332Z,22.4
2019-04-21T10:12:03.123Z,22.5
2019-04-21T10:13:03.026Z,22.8
2019-04-21T10:14:03.319Z,22.7
2019-04-21T10:15:04.222Z,22.9
2019-04-21T10:16:03.183Z,22.9
2019-04-21T10:17:04.679Z,23
2019-04-21T10:18:03.244Z,22.7
2019-04-21T10:19:04.500Z,22.5
2019-04-21T10:20:03.350Z,22.4
2019-04-21T10:21:03.418Z,22.6
2019-04-21T10:22:04.372Z,22.9
2019-04-21T10:23:03.528Z,23.1
2019-04-21T10:24:04.089Z,23.1
2019-04-21T10:25:04.704Z,23.2
2019-04-21T10:26:04.228Z,22.9
2019-04-21T10:27:05.651Z,22.9
2019-04-21T10:28:03.785Z,22.8
2019-04-21T10:29:09.245Z,22.7
2019-04-21T10:30:03.905Z,22.8
2019-04-21T10:31:04.813Z,22.6
2019-04-21T10:32:04.019Z,22.7
2019-04-21T10:33:04.402Z,23
2019-04-21T10:34:05.180Z,23.1
2019-04-21T10:35:05.331Z,23
2019-04-21T10:36:04.622Z,23.2
2019-04-21T10:37:04.928Z,23.3
2019-04-21T10:38:16.700Z,23.3
2019-04-21T10:39:04.437Z,23.4
2019-04-21T10:40:05.345Z,23.3
2019-04-21T10:41:05.462Z,23.2
2019-04-21T10:42:05.618Z,23.2
2019-04-21T10:43:05.682Z,23.3
2019-04-21T10:44:05.025Z,23.3
2019-04-21T10:45:05.150Z,23.5
2019-04-21T10:46:04.868Z,23.8
2019-04-21T10:47:04.892Z,23.8
2019-04-21T10:48:05.170Z,24.1
2019-04-21T10:49:04.994Z,24
2019-04-21T10:50:05.024Z,23.5
2019-04-21T10:51:05.374Z,23.2
2019-04-21T10:52:05.127Z,23.3
2019-04-21T10:53:05.178Z,23.2
2019-04-21T10:54:06.194Z,23.3
2019-04-21T10:55:20.547Z,23.5
2019-04-21T10:56:14.409Z,23.4
2019-04-21T10:57:06.409Z,23.2
2019-04-21T10:58:06.466Z,23.3
2019-04-21T10:59:05.795Z,23.4
2019-04-21T11:00:08.630Z,23.5
2019-04-21T11:01:06.209Z,23.2
2019-04-21T11:02:07.181Z,23.1
2019-04-21T11:03:06.605Z,23.3
2019-04-21T11:04:13.452Z,23.3
2019-04-21T11:05:06.869Z,23.2
2019-04-21T11:06:06.533Z,23.2
2019-04-21T11:07:11.286Z,23.3
2019-04-21T11:08:15.267Z,23.4
2019-04-21T11:09:07.214Z,23.5
2019-04-21T11:10:06.153Z,23.2
2019-04-21T11:11:06.258Z,23.2
2019-04-21T11:12:06.336Z,22.9
2019-04-21T11:13:06.307Z,22.9
2019-04-21T11:14:06.551Z,22.9
2019-04-21T11:15:07.226Z,23.2
2019-04-21T11:16:06.467Z,23.2
2019-04-21T11:17:07.718Z,23.3
2019-04-21T11:18:07.940Z,23.5
2019-04-21T11:19:06.630Z,23.7
2019-04-21T11:20:06.743Z,23.9
2019-04-21T11:21:06.984Z,23.9
2019-04-21T11:22:07.140Z,23.9
2019-04-21T11:23:07.931Z,23.8
2019-04-21T11:24:08.048Z,23.7
2019-04-21T11:25:07.021Z,23.6
2019-04-21T11:26:06.995Z,23.5
2019-04-21T11:27:07.003Z,23.5
2019-04-21T11:28:07.095Z,23.6
2019-04-21T11:29:07.300Z,24
2019-04-21T11:30:07.525Z,23.5
2019-04-21T11:31:08.914Z,23.3
2019-04-21T11:32:07.286Z,23.3
2019-04-21T11:33:07.321Z,23.5
2019-04-21T11:34:07.400Z,23.5
2019-04-21T11:35:07.503Z,23.6
2019-04-21T11:36:07.513Z,23.9
2019-04-21T11:37:08.101Z,23.9
2019-04-21T11:38:14.857Z,23.8
2019-04-21T11:39:19.709Z,23.8
2019-04-21T11:40:11.243Z,23.4
2019-04-21T11:41:07.798Z,23.3
2019-04-21T11:42:07.929Z,23.4
2019-04-21T11:43:07.950Z,23.7
2019-04-21T11:44:07.987Z,24
2019-04-21T11:45:08.403Z,23.9
2019-04-21T11:46:08.550Z,24.2
2019-04-21T11:47:08.156Z,24.3
2019-04-21T11:48:08.256Z,24.5
2019-04-21T11:49:08.420Z,24.2
2019-04-21T11:50:08.319Z,24
2019-04-21T11:51:08.995Z,23.6
2019-04-21T11:52:09.156Z,23.4
2019-04-21T11:53:08.485Z,23.8
2019-04-21T11:54:08.782Z,37.5
2019-04-21T11:55:08.950Z,24
2019-04-21T11:56:09.004Z,23.8
2019-04-21T11:57:14.900Z,23.7
2019-04-21T11:58:09.919Z,23.8
2019-04-21T11:59:09.958Z,24
2019-04-21T12:00:09.347Z,23.8
2019-04-21T12:01:09.640Z,23.9
2019-04-21T12:02:09.740Z,23.7
2019-04-21T12:03:09.303Z,24
2019-04-21T12:04:09.727Z,24.2
2019-04-21T12:05:09.729Z,24
2019-04-21T12:06:09.273Z,23.9
2019-04-21T12:07:09.307Z,23.9
2019-04-21T12:08:19.804Z,24
2019-04-21T12:09:10.009Z,23.9
2019-04-21T12:10:09.509Z,23.8
2019-04-21T12:11:09.584Z,23.8
2019-04-21T12:12:11.461Z,24
2019-04-21T12:13:14.077Z,24.1
2019-04-21T12:14:10.139Z,30.9
2019-04-21T12:15:12.137Z,24
2019-04-21T12:16:10.651Z,23.9
2019-04-21T12:17:10.045Z,24.1
2019-04-21T12:18:10.080Z,24.1
2019-04-21T12:19:10.010Z,24
2019-04-21T12:20:10.608Z,24.1
2019-04-21T12:21:11.367Z,24.2
2019-04-21T12:22:17.955Z,24.6
2019-04-21T12:23:10.237Z,24.4
2019-04-21T12:24:11.110Z,24.3
2019-04-21T12:25:11.234Z,24.1
2019-04-21T12:26:10.425Z,24.1
2019-04-21T12:27:11.901Z,24.1
2019-04-21T12:28:12.065Z,24
2019-04-21T12:29:10.603Z,24
2019-04-21T12:30:11.406Z,23.9
2019-04-21T12:31:11.638Z,24
2019-04-21T12:32:10.777Z,24.3
2019-04-21T12:33:12.038Z,24.4
2019-04-21T12:34:12.048Z,24.5
2019-04-21T12:35:12.253Z,24.7
2019-04-21T12:36:11.562Z,24.6
2019-04-21T12:37:11.074Z,24.7
2019-04-21T12:38:11.110Z,24.6
2019-04-21T12:39:12.675Z,24.4
2019-04-21T12:40:12.571Z,24.2
2019-04-21T12:41:11.301Z,24.3
2019-04-21T12:42:12.325Z,24.4
2019-04-21T12:43:12.511Z,24.3
2019-04-21T12:44:12.792Z,23.9
2019-04-21T12:45:11.582Z,23.7
2019-04-21T12:46:12.002Z,23.9
2019-04-21T12:47:12.003Z,24.1
2019-04-21T12:48:11.782Z,24.3
2019-04-21T12:49:11.936Z,24.2
2019-04-21T12:50:12.855Z,24.2
2019-04-21T12:51:12.240Z,24.3
2019-04-21T12:52:11.969Z,24.2
2019-04-21T12:53:14.109Z,24.3
2019-04-21T12:54:12.094Z,24.2
2019-04-21T12:55:13.415Z,24.2
2019-04-21T12:56:13.544Z,24.4
2019-04-21T12:57:12.241Z,24.3
2019-04-21T12:58:13.091Z,24.1
2019-04-21T12:59:12.379Z,24.2
2019-04-21T13:00:13.091Z,24.3
2019-04-21T13:01:12.614Z,24.4
2019-04-21T13:02:13.721Z,24.5
2019-04-21T13:03:13.976Z,24.1
2019-04-21T13:04:13.479Z,24.3
2019-04-21T13:05:13.574Z,24.4
2019-04-21T13:06:13.853Z,24.8
2019-04-21T13:07:13.258Z,24.8
2019-04-21T13:08:13.444Z,24.8
2019-04-21T13:09:16.123Z,24.8
2019-04-21T13:10:12.975Z,25
2019-04-21T13:11:13.207Z,24.8
2019-04-21T13:12:13.161Z,24.9
2019-04-21T13:13:14.347Z,25.1
2019-04-21T13:14:13.654Z,25.1
2019-04-21T13:15:13.602Z,25.6
2019-04-21T13:16:13.694Z,26
2019-04-21T13:17:13.399Z,26.1
2019-04-21T13:18:14.321Z,25.9
2019-04-21T13:19:13.534Z,25.4
2019-04-21T13:20:14.880Z,25.3
2019-04-21T13:21:14.019Z,25.2
2019-04-21T13:22:14.114Z,25.2
2019-04-21T13:23:13.914Z,25.7
2019-04-21T13:24:13.833Z,25.4
2019-04-21T13:25:14.098Z,25.7
2019-04-21T13:26:15.033Z,25.4
2019-04-21T13:27:15.440Z,25
2019-04-21T13:28:14.628Z,25.1
2019-04-21T13:29:14.520Z,25.2
2019-04-21T13:30:14.643Z,25
2019-04-21T13:31:14.258Z,24.8
2019-04-21T13:32:14.530Z,25
2019-04-21T13:33:15.400Z,25.1
2019-04-21T13:34:15.766Z,25.2
2019-04-21T13:35:15.044Z,25
2019-04-21T13:36:15.686Z,25.3
2019-04-21T13:37:15.226Z,25.4
2019-04-21T13:38:23.014Z,25.7
2019-04-21T13:39:44.203Z,26
2019-04-21T13:40:33.957Z,25.7
2019-04-21T13:41:29.201Z,25.4
2019-04-21T13:42:23.849Z,25.7
2019-04-21T13:43:15.001Z,25.9
2019-04-21T13:44:15.586Z,25.6
2019-04-21T13:45:16.250Z,25.5
2019-04-21T13:46:15.448Z,25.3
2019-04-21T13:47:16.603Z,25.5
2019-04-21T13:48:16.649Z,25.8
2019-04-21T13:49:15.205Z,26.1
2019-04-21T13:50:15.357Z,25.9
2019-04-21T13:51:15.463Z,26
2019-04-21T13:52:15.361Z,26
2019-04-21T13:53:16.628Z,26.1
2019-04-21T13:54:15.733Z,26.2
2019-04-21T13:55:15.892Z,25.8
2019-04-21T13:56:16.269Z,25.4
2019-04-21T13:57:16.638Z,25.5
2019-04-21T13:58:16.759Z,25.5
2019-04-21T13:59:16.095Z,25.7
2019-04-21T14:00:17.094Z,25.8
2019-04-21T14:01:16.132Z,25.8
2019-04-21T14:02:16.314Z,26
2019-04-21T14:03:16.713Z,25.7
2019-04-21T14:04:16.087Z,25.7
2019-04-21T14:05:16.141Z,25.6
2019-04-21T14:06:16.314Z,26.1
2019-04-21T14:07:16.482Z,26
2019-04-21T14:08:16.257Z,25.9
2019-04-21T14:09:17.792Z,25.6
2019-04-21T14:10:17.885Z,25.6
2019-04-21T14:11:17.529Z,25.6
2019-04-21T14:12:17.190Z,25.6
2019-04-21T14:13:16.585Z,25.6
2019-04-21T14:14:16.696Z,25.7
2019-04-21T14:15:18.052Z,25.7
2019-04-21T14:16:18.114Z,25.5
2019-04-21T14:17:17.030Z,25.3
2019-04-21T14:18:18.410Z,25.3
2019-04-21T14:19:17.308Z,25.4
2019-04-21T14:20:17.522Z,25.5
2019-04-21T14:21:17.285Z,25.5
2019-04-21T14:22:18.074Z,25.1
2019-04-21T14:23:25.216Z,25.2
2019-04-21T14:24:17.440Z,25.4
2019-04-21T14:25:17.795Z,25.5
2019-04-21T14:26:18.290Z,25.6
2019-04-21T14:27:18.496Z,25.3
2019-04-21T14:28:17.810Z,25.3
2019-04-21T14:29:17.639Z,25.4
2019-04-21T14:30:18.646Z,25.4
2019-04-21T14:31:17.680Z,25.3
2019-04-21T14:32:18.170Z,25.2
2019-04-21T14:33:18.262Z,25.1
2019-04-21T14:34:17.940Z,25.2
2019-04-21T14:35:18.883Z,25.5
2019-04-21T14:36:18.846Z,25.5
2019-04-21T14:37:18.362Z,25.2
2019-04-21T14:38:18.563Z,25
2019-04-21T14:39:18.599Z,24.9
2019-04-21T14:40:23.620Z,24.8
2019-04-21T14:41:19.986Z,25
2019-04-21T14:42:20.241Z,25.1
2019-04-21T14:43:18.543Z,24.9
2019-04-21T14:44:20.694Z,24.8
2019-04-21T14:45:20.840Z,25.2
2019-04-21T14:46:19.401Z,25.3
2019-04-21T14:47:19.006Z,25.3
2019-04-21T14:48:21.202Z,25.4